Time;durP1;ratioP1;P1;durP2;ratioP2;P2;SDS_P1;SDS_P2;PMS_P1;PMS_P2;Temp;Humidity;BMP_temperature;BMP_pressure;BME280_temperature;BME280_humidity;BME280_pressure;Samples;Min_cycle;Max_cycle;Signal;HPM_P1;HPM_P2
2022/03/04 00:00:50;;;;;;;81.07;34.13;;;;;;;0.38;69.87;100691.34;5032222;28;20101;-79
2022/03/04 00:03:19;;;;;;;77.90;33.67;;;;;;;0.41;70.27;100685.75;4998928;28;20427;-79
2022/03/04 00:05:45;;;;;;;75.78;35.17;;;;;;;0.43;70.50;100693.75;5015374;28;20028;-79
2022/03/04 00:08:11;;;;;;;73.50;32.38;;;;;;;0.46;69.45;100695.75;5012088;28;20052;-79
2022/03/04 00:10:36;;;;;;;68.88;31.70;;;;;;;0.66;69.65;100713.75;5012883;28;20025;-78
2022/03/04 00:13:02;;;;;;;76.43;33.85;;;;;;;0.66;69.93;100694.13;5012141;28;20026;-78
2022/03/04 00:15:27;;;;;;;68.32;32.08;;;;;;;0.75;69.81;100696.50;4995589;28;20021;-78
2022/03/04 00:17:53;;;;;;;73.00;33.60;;;;;;;0.76;69.78;100704.53;5012075;28;20479;-78
2022/03/04 00:20:19;;;;;;;66.50;29.70;;;;;;;0.69;69.89;100676.50;5012056;28;20459;-77
2022/03/04 00:22:47;;;;;;;65.80;31.23;;;;;;;0.86;69.66;100691.69;5011461;28;20165;-78
2022/03/04 00:25:12;;;;;;;71.68;31.35;;;;;;;0.93;70.02;100693.69;4994744;28;20037;-78
2022/03/04 00:27:39;;;;;;;62.83;30.30;;;;;;;0.97;69.94;100702.91;5011818;28;20412;-77
2022/03/04 00:30:07;;;;;;;72.43;31.30;;;;;;;1.00;69.86;100690.84;4995380;28;20038;-78
2022/03/04 00:32:35;;;;;;;67.85;29.23;;;;;;;1.06;69.58;100700.47;5012044;28;20017;-77
2022/03/04 00:35:02;;;;;;;70.65;30.65;;;;;;;1.07;69.28;100691.66;4998125;28;20034;-77
2022/03/04 00:37:28;;;;;;;61.55;27.90;;;;;;;1.09;69.28;100697.63;4992295;28;20030;-78
2022/03/04 00:39:56;;;;;;;63.30;27.95;;;;;;;1.19;69.08;100701.63;4992326;28;20101;-79
2022/03/04 00:42:21;;;;;;;70.07;28.58;;;;;;;1.25;69.82;100702.81;4991825;28;20034;-78
2022/03/04 00:44:47;;;;;;;64.75;30.42;;;;;;;1.28;68.80;100699.22;4992293;28;20084;-78
2022/03/04 00:47:12;;;;;;;61.60;27.63;;;;;;;1.27;68.67;100683.56;4975705;28;20424;-79
2022/03/04 00:49:39;;;;;;;66.30;26.35;;;;;;;1.35;68.75;100692.75;4991777;28;20014;-77
2022/03/04 00:52:06;;;;;;;57.95;27.60;;;;;;;1.36;69.28;100689.53;5008362;28;20029;-79
2022/03/04 00:54:33;;;;;;;57.38;26.88;;;;;;;1.41;69.39;100693.94;4992161;28;20076;-78
2022/03/04 00:56:58;;;;;;;62.28;27.00;;;;;;;1.41;69.56;100688.31;4991873;28;20029;-78
2022/03/04 00:59:23;;;;;;;63.60;27.48;;;;;;;1.43;69.12;100686.69;4992036;28;20026;-78
2022/03/04 01:01:49;;;;;;;58.90;28.20;;;;;;;1.43;69.38;100686.69;4975530;28;20463;-79
2022/03/04 01:04:15;;;;;;;61.80;29.00;;;;;;;1.49;69.16;100684.25;5008277;28;20204;-79
2022/03/04 01:06:43;;;;;;;54.15;24.83;;;;;;;1.54;68.64;100689.47;4994308;28;20117;-79
2022/03/04 01:09:08;;;;;;;54.25;26.13;;;;;;;1.56;69.39;100689.84;4995348;28;20113;-79
2022/03/04 01:11:34;;;;;;;62.70;27.77;;;;;;;1.59;69.03;100689.84;5013180;28;20529;-79
2022/03/04 01:14:01;;;;;;;54.47;26.70;;;;;;;1.65;69.37;100676.97;5016214;28;20419;-79
2022/03/04 01:16:27;;;;;;;58.15;24.98;;;;;;;1.67;69.24;100685.00;4983786;28;20044;-77
2022/03/04 01:18:53;;;;;;;55.90;27.63;;;;;;;1.70;68.80;100678.56;5000389;28;20030;-77
2022/03/04 01:21:19;;;;;;;62.22;27.17;;;;;;;1.69;69.18;100674.13;4984369;28;20026;-79
2022/03/04 01:23:44;;;;;;;55.75;26.70;;;;;;;1.68;69.10;100676.16;5000635;28;20048;-79
2022/03/04 01:26:09;;;;;;;59.45;27.05;;;;;;;1.67;68.94;100666.16;4999013;28;20466;-80
2022/03/04 01:28:36;;;;;;;59.70;27.05;;;;;;;1.71;68.84;100668.94;4998298;28;20030;-78
2022/03/04 01:31:16;;;;;;;63.63;28.98;;;;;;;1.72;69.45;100674.16;4998776;28;20026;-80
2022/03/04 01:33:56;;;;;;;67.32;28.85;;;;;;;1.70;69.61;100681.38;5014668;28;20084;-79
2022/03/04 01:36:22;;;;;;;64.55;28.42;;;;;;;1.73;69.01;100680.53;5014946;28;20036;-77
2022/03/04 01:38:49;;;;;;;62.35;27.80;;;;;;;1.67;69.32;100674.56;4982046;28;20033;-79
2022/03/04 01:41:17;;;;;;;62.28;29.60;;;;;;;1.73;69.40;100681.34;5015367;28;20483;-78
2022/03/04 01:43:43;;;;;;;66.07;29.83;;;;;;;1.73;68.95;100674.91;5014426;28;20018;-78
2022/03/04 01:46:19;;;;;;;62.83;28.92;;;;;;;1.77;69.26;100674.91;5014367;28;20018;-79
2022/03/04 01:48:46;;;;;;;60.53;28.88;;;;;;;1.79;69.27;100672.47;4996781;28;20017;-79
2022/03/04 01:51:22;;;;;;;66.43;31.33;;;;;;;1.77;69.39;100675.72;4996633;28;20475;-79
2022/03/04 01:53:50;;;;;;;66.07;28.92;;;;;;;1.74;68.82;100665.28;4980424;28;20038;-79
2022/03/04 01:56:16;;;;;;;63.00;29.92;;;;;;;1.77;69.32;100675.72;5016683;28;20483;-80
2022/03/04 01:58:42;;;;;;;68.20;28.75;;;;;;;1.78;69.45;100673.72;4998999;28;20084;-79
2022/03/04 02:01:10;;;;;;;64.13;29.48;;;;;;;1.78;69.05;100674.47;5017219;28;20029;-79
2022/03/04 02:03:35;;;;;;;72.30;29.63;;;;;;;1.81;69.03;100668.06;5016362;28;20451;-78
2022/03/04 02:06:00;;;;;;;63.38;29.27;;;;;;;1.85;69.02;100660.41;4997501;28;20030;-78
2022/03/04 02:08:27;;;;;;;68.97;29.88;;;;;;;1.87;69.29;100663.63;4996862;28;20108;-79
2022/03/04 02:10:52;;;;;;;70.78;31.30;;;;;;;1.87;69.19;100665.63;5015412;28;20113;-78
2022/03/04 02:13:19;;;;;;;67.95;30.08;;;;;;;1.91;69.78;100664.41;5015683;28;20101;-78
2022/03/04 02:15:45;;;;;;;66.32;30.27;;;;;;;1.95;69.43;100658.75;4998113;28;20030;-78
2022/03/04 02:18:29;;;;;;;68.90;32.50;;;;;;;1.97;69.63;100657.13;5014034;28;20033;-79
2022/03/04 02:21:06;;;;;;;67.13;30.60;;;;;;;1.94;70.29;100657.94;4997650;28;20029;-77
2022/03/04 02:23:32;;;;;;;73.15;33.80;;;;;;;1.93;69.94;100656.34;5013608;28;20033;-78
2022/03/04 02:25:59;;;;;;;80.85;33.45;;;;;;;1.95;70.15;100655.94;4997461;28;20033;-79
2022/03/04 02:28:25;;;;;;;73.70;34.95;;;;;;;1.95;69.98;100653.94;5014038;28;20111;-78
2022/03/04 02:30:50;;;;;;;81.40;32.47;;;;;;;1.97;69.75;100661.94;4981093;28;20085;-78
2022/03/04 02:33:15;;;;;;;69.60;33.15;;;;;;;1.97;70.01;100662.75;4997190;28;20022;-76
2022/03/04 02:35:42;;;;;;;71.15;33.47;;;;;;;1.96;70.27;100663.16;4996711;28;20107;-76
2022/03/04 02:38:09;;;;;;;71.47;33.40;;;;;;;1.96;70.24;100663.97;4980800;28;20105;-77
2022/03/04 02:40:36;;;;;;;77.05;34.05;;;;;;;1.90;70.65;100653.56;4997202;28;20435;-78
2022/03/04 02:43:04;;;;;;;80.20;36.30;;;;;;;2.04;70.48;100678.75;4997380;28;20025;-78
2022/03/04 02:45:30;;;;;;;87.13;35.92;;;;;;;2.03;70.75;100674.31;4994618;28;20486;-78
2022/03/04 02:47:57;;;;;;;79.63;35.13;;;;;;;2.03;71.65;100665.91;4996830;28;20072;-78
2022/03/04 02:50:22;;;;;;;79.60;35.97;;;;;;;2.02;71.63;100667.91;4996741;28;20487;-79
2022/03/04 02:52:48;;;;;;;77.13;35.25;;;;;;;1.96;71.96;100663.97;5014466;28;20033;-78
2022/03/04 02:55:15;;;;;;;79.00;33.60;;;;;;;1.98;71.20;100664.31;4980543;28;20142;-78
2022/03/04 02:57:46;;;;;;;76.60;36.08;;;;;;;1.92;72.44;100668.00;5013191;28;20021;-78
2022/03/04 03:00:14;;;;;;;74.63;35.85;;;;;;;1.91;71.60;100672.00;4980158;28;20048;-79
2022/03/04 03:02:44;;;;;;;85.40;37.00;;;;;;;1.90;72.37;100676.03;4996179;28;20038;-78
2022/03/04 03:05:12;;;;;;;76.75;33.60;;;;;;;1.92;72.36;100685.66;4980491;28;20030;-77
2022/03/04 03:07:46;;;;;;;92.40;37.47;;;;;;;1.92;71.98;100684.84;4993012;28;20056;-78
2022/03/04 03:10:13;;;;;;;79.70;36.03;;;;;;;1.89;72.15;100680.84;5009938;28;20448;-79
2022/03/04 03:12:40;;;;;;;88.32;38.88;;;;;;;1.90;72.26;100682.44;4975831;28;20386;-78
2022/03/04 03:15:10;;;;;;;85.35;36.22;;;;;;;1.89;72.11;100685.66;4993153;28;20041;-80
2022/03/04 03:17:36;;;;;;;79.35;35.70;;;;;;;1.93;72.30;100692.03;4975424;28;20475;-81
2022/03/04 03:20:11;;;;;;;76.70;34.83;;;;;;;1.94;73.14;100688.84;4977782;28;20093;-80
2022/03/04 03:22:38;;;;;;;85.53;36.25;;;;;;;1.90;72.44;100674.03;5009415;28;20045;-81
2022/03/04 03:25:04;;;;;;;83.28;34.97;;;;;;;1.88;72.88;100670.00;4993424;28;20030;-80
2022/03/04 03:27:29;;;;;;;83.53;35.53;;;;;;;1.88;73.61;100676.44;5009571;28;20025;-79
2022/03/04 03:29:55;;;;;;;81.18;36.42;;;;;;;1.85;73.56;100668.03;4993047;28;20148;-78
2022/03/04 03:32:21;;;;;;;85.05;36.13;;;;;;;1.87;72.95;100682.47;4976735;28;20506;-78
2022/03/04 03:34:46;;;;;;;85.75;36.83;;;;;;;1.90;72.88;100693.69;4993476;28;20022;-79
2022/03/04 03:37:12;;;;;;;82.88;36.38;;;;;;;1.93;72.70;100695.66;4992889;28;20440;-78
2022/03/04 03:39:38;;;;;;;86.45;36.45;;;;;;;1.90;73.03;100688.06;4976607;28;20022;-78
2022/03/04 03:42:20;;;;;;;90.13;37.13;;;;;;;1.87;73.96;100690.91;4992578;28;20026;-76
2022/03/04 03:44:45;;;;;;;79.28;36.42;;;;;;;1.86;73.76;100686.50;4992976;28;20030;-79
2022/03/04 03:47:12;;;;;;;80.68;35.92;;;;;;;1.88;74.14;100679.25;4994281;28;20096;-78
2022/03/04 03:49:39;;;;;;;78.38;34.95;;;;;;;1.90;73.08;100678.84;4992662;28;20034;-79
2022/03/04 03:52:09;;;;;;;73.00;34.38;;;;;;;1.88;73.60;100676.44;4992878;28;20048;-77
2022/03/04 03:54:35;;;;;;;77.53;31.95;;;;;;;1.88;73.73;100689.66;4992531;28;20029;-78
2022/03/04 03:57:03;;;;;;;74.20;30.92;;;;;;;1.87;73.45;100686.09;4992840;28;20029;-78
2022/03/04 03:59:30;;;;;;;71.00;32.25;;;;;;;1.90;73.38;100690.06;4993889;28;20030;-77
2022/03/04 04:01:56;;;;;;;71.43;31.98;;;;;;;1.87;73.15;100682.47;4975154;28;20049;-77
2022/03/04 04:04:21;;;;;;;70.03;31.70;;;;;;;1.88;73.20;100682.03;4976433;28;20027;-80
2022/03/04 04:06:49;;;;;;;72.25;30.70;;;;;;;1.87;73.95;100682.47;4994268;28;20084;-79
2022/03/04 04:09:16;;;;;;;71.90;29.00;;;;;;;1.86;73.81;100692.91;5013501;28;20040;-81
2022/03/04 04:11:43;;;;;;;68.95;31.10;;;;;;;1.86;73.91;100686.50;4995778;28;20083;-79
2022/03/04 04:14:10;;;;;;;73.85;32.28;;;;;;;1.89;74.45;100688.47;4979743;28;20052;-79
2022/03/04 04:16:50;;;;;;;65.85;30.67;;;;;;;1.93;74.59;100686.44;4995598;28;20400;-80
2022/03/04 04:19:16;;;;;;;70.13;30.15;;;;;;;1.94;73.76;100682.41;4995648;28;20504;-79
2022/03/04 04:21:42;;;;;;;74.97;31.85;;;;;;;1.91;73.89;100681.25;5013058;28;20030;-79
2022/03/04 04:24:08;;;;;;;76.78;32.53;;;;;;;1.91;73.89;100680.44;4995400;28;20021;-80
2022/03/04 04:26:35;;;;;;;73.55;31.10;;;;;;;1.88;74.01;100682.03;5013025;28;20096;-78
2022/03/04 04:29:03;;;;;;;77.15;33.25;;;;;;;1.86;73.84;100681.69;5012594;28;20030;-78
2022/03/04 04:31:31;;;;;;;66.97;30.27;;;;;;;1.90;73.99;100678.84;4996086;28;20037;-79
2022/03/04 04:33:57;;;;;;;71.05;31.33;;;;;;;1.90;73.92;100673.22;5012651;28;20422;-78
2022/03/04 04:36:23;;;;;;;76.05;34.78;;;;;;;1.89;74.16;100669.59;4995612;28;20486;-79
2022/03/04 04:38:48;;;;;;;71.20;31.40;;;;;;;1.87;74.54;100663.63;4979390;28;20030;-78
2022/03/04 04:41:13;;;;;;;69.43;31.60;;;;;;;1.94;74.05;100674.00;4995511;28;20026;-79
2022/03/04 04:43:39;;;;;;;80.60;33.85;;;;;;;1.88;74.32;100667.19;4995400;28;20434;-79
2022/03/04 04:46:04;;;;;;;69.60;31.67;;;;;;;1.90;74.45;100678.84;4998111;28;20080;-78
2022/03/04 04:48:30;;;;;;;72.03;32.22;;;;;;;1.90;74.29;100674.03;4999303;28;20379;-79
2022/03/04 04:51:10;;;;;;;75.75;33.63;;;;;;;1.85;74.97;100660.41;5017296;28;20044;-78
2022/03/04 04:53:36;;;;;;;71.70;32.38;;;;;;;1.88;74.70;100670.00;5016030;28;20057;-77
2022/03/04 04:56:02;;;;;;;76.75;33.75;;;;;;;1.91;74.46;100680.44;5016966;28;20537;-79
2022/03/04 04:58:28;;;;;;;74.57;31.65;;;;;;;1.95;74.17;100678.41;4999424;28;20172;-79
2022/03/04 05:00:55;;;;;;;70.38;30.17;;;;;;;1.95;73.99;100661.56;4998992;28;20208;-78
2022/03/04 05:03:22;;;;;;;71.07;31.13;;;;;;;2.01;74.22;100673.97;5016400;28;20118;-78
2022/03/04 05:05:48;;;;;;;76.25;32.80;;;;;;;2.01;73.93;100671.94;4997876;28;20072;-78
2022/03/04 05:08:14;;;;;;;80.45;31.85;;;;;;;2.06;73.91;100681.94;5011893;28;20137;-79
2022/03/04 05:10:41;;;;;;;74.38;32.55;;;;;;;2.08;73.55;100676.69;4995752;28;20529;-79
2022/03/04 05:13:07;;;;;;;80.45;30.92;;;;;;;2.08;73.81;100677.50;4995519;28;20045;-79
2022/03/04 05:15:33;;;;;;;69.75;31.67;;;;;;;2.06;73.99;100673.53;4980972;28;20045;-81
2022/03/04 05:17:59;;;;;;;74.28;31.83;;;;;;;2.11;73.80;100675.91;4997680;28;20037;-78
2022/03/04 05:20:24;;;;;;;76.30;32.22;;;;;;;2.12;73.98;100669.84;4997758;28;20041;-79
2022/03/04 05:22:50;;;;;;;70.50;31.83;;;;;;;2.09;73.78;100669.88;4997394;28;20027;-79
2022/03/04 05:25:15;;;;;;;79.97;33.15;;;;;;;2.13;73.31;100673.44;4978651;28;20034;-79
2022/03/04 05:27:43;;;;;;;71.90;31.27;;;;;;;2.11;73.88;100671.06;5011509;28;20097;-80
2022/03/04 05:30:10;;;;;;;68.68;31.15;;;;;;;2.13;73.99;100679.88;4996661;28;20026;-79
2022/03/04 05:32:39;;;;;;;68.45;30.90;;;;;;;2.17;73.56;100677.06;4995452;28;20084;-80
2022/03/04 05:35:09;;;;;;;74.75;32.28;;;;;;;2.21;73.05;100674.22;4995384;28;20129;-79
2022/03/04 05:37:35;;;;;;;69.57;31.27;;;;;;;2.24;73.60;100679.00;4995544;28;20056;-78
2022/03/04 05:40:04;;;;;;;76.97;31.60;;;;;;;2.27;73.03;100678.97;5011294;28;20527;-79
2022/03/04 05:42:36;;;;;;;65.90;29.90;;;;;;;2.32;73.34;100683.38;5000487;28;20460;-78
2022/03/04 05:45:03;;;;;;;69.00;31.95;;;;;;;2.31;72.95;100685.38;4999690;28;20030;-79
2022/03/04 05:47:28;;;;;;;76.13;33.08;;;;;;;2.33;73.11;100685.75;4982065;28;20030;-78
2022/03/04 05:49:54;;;;;;;74.75;33.00;;;;;;;2.37;73.40;100688.56;4997953;28;20065;-78
2022/03/04 05:52:20;;;;;;;72.15;29.77;;;;;;;2.40;73.30;100696.94;4999951;28;20369;-78
2022/03/04 05:54:46;;;;;;;67.88;30.25;;;;;;;2.34;73.33;100681.72;4995906;28;20048;-78
2022/03/04 05:57:12;;;;;;;70.30;31.65;;;;;;;2.46;73.07;100697.31;4995910;28;20030;-80
2022/03/04 05:59:38;;;;;;;75.05;31.73;;;;;;;2.47;72.91;100696.06;4996671;28;20085;-77
2022/03/04 06:02:08;;;;;;;66.97;31.38;;;;;;;2.49;73.36;100702.88;4998892;28;20117;-77
2022/03/04 06:04:35;;;;;;;71.50;31.42;;;;;;;2.52;72.92;100695.63;4995274;28;20042;-77
2022/03/04 06:07:01;;;;;;;68.70;30.92;;;;;;;2.54;72.79;100696.03;4994931;28;20488;-78
2022/03/04 06:09:28;;;;;;;71.60;31.92;;;;;;;2.60;72.97;100706.41;4983316;28;20029;-78
2022/03/04 06:11:56;;;;;;;71.75;30.35;;;;;;;2.61;72.88;100710.03;5000726;28;20039;-77
2022/03/04 06:14:29;;;;;;;70.75;32.60;;;;;;;2.67;72.68;100713.16;5000909;28;20485;-78
2022/03/04 06:16:54;;;;;;;70.57;32.20;;;;;;;2.69;72.63;100716.38;5000060;28;20027;-79
2022/03/04 06:19:23;;;;;;;73.53;33.00;;;;;;;2.72;72.91;100718.34;5000160;28;20038;-81
2022/03/04 06:21:49;;;;;;;64.82;30.42;;;;;;;2.78;72.21;100723.13;5005573;28;20337;-76
2022/03/04 06:24:16;;;;;;;71.30;32.45;;;;;;;2.80;72.44;100714.28;4997617;28;20026;-76
2022/03/04 06:26:42;;;;;;;71.68;31.02;;;;;;;2.85;72.13;100727.88;4996047;28;20057;-74
2022/03/04 06:29:09;;;;;;;78.45;33.35;;;;;;;2.85;72.05;100734.31;4996454;28;20092;-75
2022/03/04 06:31:34;;;;;;;75.63;31.63;;;;;;;2.88;72.00;100736.28;4994772;28;20026;-78
2022/03/04 06:34:01;;;;;;;72.75;32.00;;;;;;;2.92;71.97;100741.88;5011224;28;20048;-77
2022/03/04 06:36:26;;;;;;;75.85;33.55;;;;;;;2.92;71.65;100727.81;5011387;28;20518;-76
2022/03/04 06:38:53;;;;;;;78.70;34.10;;;;;;;3.01;71.56;100734.53;4999140;28;20030;-75
2022/03/04 06:41:18;;;;;;;78.38;33.00;;;;;;;3.11;71.73;100737.69;4979069;28;20030;-76
2022/03/04 06:43:47;;;;;;;75.05;32.08;;;;;;;3.09;71.61;100723.22;4995347;28;20026;-77
2022/03/04 06:46:15;;;;;;;69.72;33.00;;;;;;;3.27;71.56;100735.09;4996723;28;20130;-80
2022/03/04 06:48:42;;;;;;;69.00;34.47;;;;;;;3.40;71.46;100750.25;5011452;28;20030;-80
2022/03/04 06:51:08;;;;;;;69.35;32.38;;;;;;;3.45;70.43;100744.91;4995955;28;20033;-79
2022/03/04 06:53:34;;;;;;;73.47;34.67;;;;;;;3.55;70.21;100739.59;5012248;28;20026;-74
2022/03/04 06:56:01;;;;;;;77.38;32.75;;;;;;;3.56;69.81;100738.38;5010903;28;20038;-75
2022/03/04 06:58:27;;;;;;;78.97;34.53;;;;;;;3.53;69.85;100734.38;4994542;28;20034;-75
2022/03/04 07:00:53;;;;;;;78.95;33.65;;;;;;;3.65;69.44;100738.69;4993643;28;20042;-75
2022/03/04 07:03:19;;;;;;;78.07;34.38;;;;;;;3.70;69.23;100741.03;5011156;28;20115;-74
2022/03/04 07:05:46;;;;;;;80.55;34.88;;;;;;;3.77;69.39;100746.56;4996724;28;20431;-75
2022/03/04 07:08:14;;;;;;;85.75;36.33;;;;;;;3.81;69.23;100753.75;4993861;28;20109;-75
2022/03/04 07:10:47;;;;;;;80.80;35.90;;;;;;;3.83;68.56;100750.50;5010946;28;20054;-74
2022/03/04 07:13:14;;;;;;;75.13;36.45;;;;;;;3.83;68.56;100753.34;5000405;28;20022;-79
2022/03/04 07:15:40;;;;;;;83.55;37.13;;;;;;;3.87;68.62;100754.06;4993721;28;20404;-77
2022/03/04 07:18:06;;;;;;;85.53;39.67;;;;;;;3.95;69.27;100754.81;4994491;28;20505;-76
2022/03/04 07:20:38;;;;;;;88.88;38.88;;;;;;;4.01;69.02;100750.25;4995690;28;20050;-77
2022/03/04 07:23:05;;;;;;;90.30;37.92;;;;;;;4.05;68.54;100745.38;4981750;28;20449;-80
2022/03/04 07:25:39;;;;;;;86.50;35.78;;;;;;;4.21;69.28;100754.81;4994641;28;20332;-78
2022/03/04 07:28:10;;;;;;;75.05;34.22;;;;;;;4.33;68.25;100751.44;4994572;28;20061;-77
2022/03/04 07:30:36;;;;;;;72.97;33.88;;;;;;;4.41;68.30;100752.09;4995022;28;20038;-75
2022/03/04 07:33:03;;;;;;;83.43;35.03;;;;;;;4.47;68.41;100756.03;4995203;28;20120;-78
2022/03/04 07:35:30;;;;;;;89.47;38.50;;;;;;;4.55;68.39;100759.53;4997179;28;20026;-78
2022/03/04 07:37:55;;;;;;;84.30;37.28;;;;;;;4.63;67.40;100752.59;4993790;28;20030;-79
2022/03/04 07:40:33;;;;;;;85.20;36.78;;;;;;;4.74;68.67;100756.81;4994092;28;20505;-76
2022/03/04 07:43:01;;;;;;;82.07;34.95;;;;;;;4.83;67.79;100761.94;4994544;28;20510;-78
2022/03/04 07:45:26;;;;;;;73.43;34.50;;;;;;;4.93;67.70;100754.50;4999908;28;20037;-85
2022/03/04 07:48:07;;;;;;;87.95;37.90;;;;;;;5.02;66.73;100749.91;5001806;28;20026;-85
2022/03/04 07:50:34;;;;;;;78.88;34.17;;;;;;;5.21;67.00;100760.44;4997445;28;20026;-82
2022/03/04 07:52:59;;;;;;;79.97;36.30;;;;;;;5.34;66.15;100756.97;4993521;28;20049;-80
2022/03/04 07:55:33;;;;;;;86.38;35.72;;;;;;;5.44;66.35;100765.25;4993658;28;20072;-82
2022/03/04 07:58:00;;;;;;;77.15;36.03;;;;;;;5.47;65.65;100761.56;5000407;28;20002;-84
2022/03/04 08:00:35;;;;;;;82.13;36.38;;;;;;;5.53;64.86;100754.16;4960784;28;20018;-82
2022/03/04 08:03:02;;;;;;;79.32;35.60;;;;;;;5.56;64.70;100761.00;4975039;28;20250;-80
2022/03/04 08:05:35;;;;;;;81.90;36.75;;;;;;;5.59;64.86;100768.59;4979757;28;20030;-82
2022/03/04 08:08:01;;;;;;;78.55;34.75;;;;;;;5.59;65.11;100771.41;4972494;28;20047;-79
2022/03/04 08:10:27;;;;;;;89.43;37.17;;;;;;;5.63;64.89;100772.94;4975085;28;20081;-87
2022/03/04 08:12:54;;;;;;;73.90;35.17;;;;;;;5.64;64.28;100774.53;4958306;28;20400;-80
2022/03/04 08:15:21;;;;;;;81.13;36.20;;;;;;;5.63;64.18;100764.47;4991048;28;20030;-88
2022/03/04 08:17:48;;;;;;;80.65;36.05;;;;;;;5.71;63.96;100769.97;4976069;28;20027;-80
2022/03/04 08:20:15;;;;;;;76.88;35.95;;;;;;;5.76;63.56;100775.13;4974327;28;20114;-86
2022/03/04 08:22:54;;;;;;;79.35;36.10;;;;;;;5.75;62.76;100773.53;4979621;28;20046;-79
2022/03/04 08:25:20;;;;;;;74.38;36.35;;;;;;;5.76;63.42;100778.75;4999606;28;20026;-82
2022/03/04 08:27:45;;;;;;;77.68;34.72;;;;;;;5.69;63.25;100770.41;4995216;28;20033;-76
2022/03/04 08:30:22;;;;;;;73.90;35.88;;;;;;;5.81;62.92;100788.75;4997940;28;20034;-79
2022/03/04 08:32:47;;;;;;;90.25;37.38;;;;;;;5.84;63.62;100788.66;5011949;28;20037;-85
2022/03/04 08:35:15;;;;;;;77.60;37.33;;;;;;;5.95;63.47;100788.50;5001898;28;20458;-85
2022/03/04 08:37:41;;;;;;;76.93;38.10;;;;;;;5.97;62.58;100795.28;4983394;28;20022;-84
2022/03/04 08:40:23;;;;;;;68.05;34.97;;;;;;;6.01;62.16;100798.06;4980833;28;20057;-79
2022/03/04 08:42:49;;;;;;;73.68;34.05;;;;;;;6.03;61.93;100790.72;4976931;28;20109;-80
2022/03/04 08:45:15;;;;;;;77.57;36.35;;;;;;;6.05;62.21;100799.56;4977319;28;20460;-78
2022/03/04 08:47:44;;;;;;;81.85;36.17;;;;;;;6.05;62.82;100793.91;4978586;28;20113;-80
2022/03/04 08:50:12;;;;;;;69.97;33.22;;;;;;;6.12;62.62;100790.13;4992597;28;20057;-74
2022/03/04 08:52:52;;;;;;;87.15;35.10;;;;;;;6.29;62.37;100791.78;4995024;28;20021;-75
2022/03/04 08:55:17;;;;;;;69.13;34.13;;;;;;;6.43;62.21;100794.28;4995279;28;20022;-74
2022/03/04 08:57:45;;;;;;;76.65;35.70;;;;;;;6.54;61.23;100796.06;4993517;28;20026;-73
2022/03/04 09:00:20;;;;;;;76.38;33.85;;;;;;;6.66;61.60;100801.06;4993994;28;20026;-79
2022/03/04 09:02:50;;;;;;;66.32;33.35;;;;;;;6.79;61.84;100799.94;4995810;28;20026;-79
2022/03/04 09:05:17;;;;;;;73.82;33.83;;;;;;;6.90;60.89;100789.16;5001350;28;20037;-78
2022/03/04 09:07:43;;;;;;;66.50;30.98;;;;;;;7.13;60.67;100799.47;5003293;28;20121;-79
2022/03/04 09:10:11;;;;;;;66.18;31.63;;;;;;;7.35;59.96;100806.19;5014318;28;20030;-78
2022/03/04 09:12:39;;;;;;;63.83;30.48;;;;;;;7.43;60.30;100806.00;4980559;28;20026;-76
2022/03/04 09:15:07;;;;;;;66.10;30.80;;;;;;;7.51;59.62;100810.22;5011499;28;20454;-78
2022/03/04 09:17:58;;;;;;;65.55;32.08;;;;;;;7.48;58.81;100806.25;4998984;28;20022;-77
2022/03/04 09:20:28;;;;;;;70.23;33.73;;;;;;;7.52;59.55;100809.00;4996327;28;20026;-80
2022/03/04 09:22:55;;;;;;;58.33;30.05;;;;;;;7.63;59.01;100813.16;5009407;28;20037;-79
2022/03/04 09:25:22;;;;;;;62.03;31.17;;;;;;;7.76;58.95;100808.31;5016147;28;20029;-80
2022/03/04 09:27:50;;;;;;;57.60;30.88;;;;;;;8.05;59.07;100807.50;5014233;28;20030;-76
2022/03/04 09:30:17;;;;;;;65.35;31.70;;;;;;;8.38;58.09;100805.34;5013252;28;20046;-76
2022/03/04 09:32:44;;;;;;;72.30;35.88;;;;;;;8.53;57.44;100803.66;5014739;28;20037;-78
2022/03/04 09:35:17;;;;;;;59.22;30.15;;;;;;;8.77;56.69;100804.94;5018734;28;20029;-78
2022/03/04 09:37:45;;;;;;;57.17;31.05;;;;;;;8.97;56.15;100796.97;5018439;28;20084;-79
2022/03/04 09:40:12;;;;;;;65.55;31.15;;;;;;;9.10;55.55;100794.09;5002332;28;20070;-76
2022/03/04 09:42:38;;;;;;;66.13;32.17;;;;;;;9.36;54.95;100792.78;4984881;28;20029;-77
2022/03/04 09:45:08;;;;;;;63.58;30.45;;;;;;;9.59;54.80;100799.31;5017078;28;20025;-77
2022/03/04 09:47:35;;;;;;;59.80;30.13;;;;;;;9.76;54.85;100781.63;5019811;28;20435;-82
2022/03/04 09:50:05;;;;;;;63.40;33.33;;;;;;;10.02;54.06;100787.97;5028021;28;20036;-84
2022/03/04 09:52:31;;;;;;;61.88;30.65;;;;;;;10.07;53.26;100790.22;5008497;28;20109;-82
2022/03/04 09:54:57;;;;;;;60.00;32.03;;;;;;;10.09;53.01;100790.56;4993212;28;20045;-80
2022/03/04 09:57:23;;;;;;;61.47;31.70;;;;;;;10.14;53.25;100770.03;4999805;28;20451;-76
2022/03/04 09:59:49;;;;;;;63.25;32.95;;;;;;;10.42;52.51;100788.09;4999926;28;20033;-77
2022/03/04 10:02:33;;;;;;;60.47;30.67;;;;;;;10.56;51.55;100790.38;4999456;28;20470;-80
2022/03/04 10:05:00;;;;;;;66.45;31.25;;;;;;;10.67;52.01;100792.81;5016356;28;20084;-77
2022/03/04 10:07:25;;;;;;;62.35;32.22;;;;;;;10.82;51.70;100785.28;5016934;28;20441;-77
2022/03/04 10:09:51;;;;;;;66.47;32.78;;;;;;;11.03;50.27;100786.47;5015088;28;20467;-77
2022/03/04 10:12:44;;;;;;;60.17;30.58;;;;;;;10.98;48.87;100789.94;4998657;28;20028;-76
2022/03/04 10:15:16;;;;;;;55.33;30.27;;;;;;;10.85;50.08;100792.09;5016016;28;20022;-74
2022/03/04 10:18:06;;;;;;;58.40;30.45;;;;;;;10.85;50.14;100784.34;4999623;28;20032;-77
2022/03/04 10:20:43;;;;;;;62.70;29.35;;;;;;;10.82;50.23;100776.72;4998787;28;20022;-77
2022/03/04 10:23:27;;;;;;;60.88;32.70;;;;;;;11.06;49.83;100789.16;5015276;28;20049;-77
2022/03/04 10:25:57;;;;;;;64.70;32.55;;;;;;;11.22;49.59;100791.75;5016256;28;20037;-81
2022/03/04 10:28:29;;;;;;;62.15;31.02;;;;;;;11.11;49.91;100794.25;5019439;28;20184;-79
2022/03/04 10:31:11;;;;;;;54.65;28.80;;;;;;;10.76;48.93;100790.00;5019272;28;20029;-77
2022/03/04 10:33:36;;;;;;;55.97;30.90;;;;;;;10.38;50.08;100802.47;4999050;28;20465;-76
2022/03/04 10:36:10;;;;;;;52.78;27.20;;;;;;;9.91;49.78;100805.47;4998931;28;20561;-77
2022/03/04 10:38:38;;;;;;;52.55;29.95;;;;;;;9.51;50.71;100802.44;4998447;28;20049;-76
2022/03/04 10:41:24;;;;;;;56.92;27.67;;;;;;;9.12;52.05;100799.31;4999223;28;20033;-77
2022/03/04 10:43:52;;;;;;;50.70;27.95;;;;;;;8.79;53.00;100795.94;5016411;28;20046;-78
2022/03/04 10:46:20;;;;;;;50.08;26.63;;;;;;;8.66;53.18;100804.47;4999167;28;20018;-79
2022/03/04 10:48:57;;;;;;;49.95;26.10;;;;;;;8.46;53.34;100793.31;4979595;28;20034;-76
2022/03/04 10:51:37;;;;;;;45.38;22.48;;;;;;;8.30;53.18;100810.44;5012646;28;20177;-77
2022/03/04 10:54:17;;;;;;;39.08;22.75;;;;;;;8.05;53.76;100796.94;5017201;28;20020;-77
2022/03/04 10:56:54;;;;;;;46.13;24.15;;;;;;;7.92;54.53;100815.97;5017375;28;20477;-78
2022/03/04 10:59:29;;;;;;;55.28;25.27;;;;;;;7.73;54.62;100800.72;5018241;28;20096;-77
2022/03/04 11:02:00;;;;;;;48.67;22.85;;;;;;;7.64;55.23;100814.75;4998479;28;20037;-78
2022/03/04 11:04:35;;;;;;;47.83;22.35;;;;;;;7.50;55.50;100812.25;4998629;28;20080;-78
2022/03/04 11:07:02;;;;;;;50.45;22.98;;;;;;;7.45;55.44;100812.81;4994892;28;20046;-79
2022/03/04 11:09:31;;;;;;;48.15;21.67;;;;;;;7.42;56.02;100815.75;4981294;28;20040;-76
2022/03/04 11:12:13;;;;;;;41.05;19.55;;;;;;;7.32;56.04;100828.94;5005358;28;20034;-75
2022/03/04 11:14:38;;;;;;;48.15;21.17;;;;;;;7.17;56.85;100817.19;5015622;28;20084;-78
2022/03/04 11:17:04;;;;;;;44.70;20.27;;;;;;;7.08;56.73;100834.00;4979121;28;20487;-77
2022/03/04 11:19:50;;;;;;;45.17;20.05;;;;;;;6.98;57.18;100835.06;4996002;28;20466;-78
2022/03/04 11:22:17;;;;;;;44.47;19.92;;;;;;;6.94;56.96;100834.34;4995002;28;20022;-75